Pagrindinis puslapis
METAR-TAF:

METAR-TAF

Oro uostai :

Kunėjas, Italija

platuma: 44-32-47N, ilguma: 007-37-20E, Aukštis: 386 m

Dabartinis oras

Ataskaita buvo paskelbta 49 minutes, ne 16:20 UTC
Vėjas 3 kt iš Vakarų, svyruoja nuo Pietų ir Šiaurės/Šiaurės Vakarų
Temperatūra 7°C
Drėgmė 53%
Slėgis 993 hPa
Matomumas 10 km arba daugiau

METAR: LIMZ 231620Z AUTO 27003KT 190V330 9999 FEW130/// BKN230/// 07/M02 Q0993

Laikas: 18:09 (17:09 UTC)

Prognozė

Ataskaita buvo paskelbta 6 valandos ir 9 minutes, ne 11:00 UTC
Prognozė galioja nuo 23 metu 12 UTC su 24 metu 12 UTC
Vėjas 5 kt nuo kintamojo kryptimis
Matomumas 10 km arba daugiau
Išsisklaidę debesys ne aukštis 4000 ft
Tapsmas
nuo 23 metu 18 UTC su 23 metu 20 UTC
Matomumas: 4000 m
rūkana
Laikinai
nuo 23 metu 22 UTC su 24 metu 06 UTC
Matomumas: 0800 m
Apsiniaukę ne aukštis 600 ft
rūkas

TAF: LIMZ 231100Z 2312/2412 VRB05KT 9999 SCT040 BECMG 2318/2320 4000 BR TEMPO 2322/2406 0800 FG OVC006

Orai ataskaitas ir orų prognozės (METAR, TAF).

turimą stotys yra geltonos ir raudonos taškus žemėlapyje.

Perkelti pele per norėdami pamatyti stoties vardą.

Tada spustelėkite, norėdami matyti oro stebėjimo ir prognozės.

Norėdami pakeisti žemėlapį: spustelėkite ant žalios mygtukų su juodo kryžiaus žemyn,; žalią mygtuką su brūkšneliu, jei norite nutolinti; arba žalių rodyklių gretimoms žemėlapius.


METAR-TAF: